createdAt,value
2022-08-17T00:02:05.837Z,16.75
2022-08-17T00:04:51.560Z,16.81
2022-08-17T00:07:18.173Z,16.80
2022-08-17T00:09:44.913Z,16.76
2022-08-17T00:12:42.971Z,16.73
2022-08-17T00:14:58.082Z,16.57
2022-08-17T00:17:24.726Z,16.50
2022-08-17T00:19:51.293Z,16.58
2022-08-17T00:22:35.027Z,16.57
2022-08-17T00:25:07.445Z,16.60
2022-08-17T00:27:35.320Z,16.66
2022-08-17T00:30:02.111Z,16.68
2022-08-17T00:33:23.147Z,16.55
2022-08-17T00:35:18.315Z,16.47
2022-08-17T00:37:45.010Z,16.50
2022-08-17T00:40:14.605Z,16.59
2022-08-17T00:42:43.454Z,16.62
2022-08-17T00:45:12.946Z,16.58
2022-08-17T00:47:40.023Z,16.44
2022-08-17T00:50:10.779Z,16.25
2022-08-17T00:52:43.567Z,16.19
2022-08-17T00:55:11.115Z,16.24
2022-08-17T00:57:43.462Z,16.32
2022-08-17T01:00:14.097Z,16.22
2022-08-17T01:02:43.738Z,16.17
2022-08-17T01:05:14.900Z,16.12
2022-08-17T01:07:42.350Z,16.08
2022-08-17T01:10:58.882Z,16.10
2022-08-17T01:13:00.790Z,16.25
2022-08-17T01:15:27.496Z,16.29
2022-08-17T01:17:54.277Z,16.29
2022-08-17T01:20:20.915Z,16.34
2022-08-17T01:22:47.654Z,16.36
2022-08-17T01:25:14.819Z,16.28
2022-08-17T01:27:42.922Z,16.28
2022-08-17T01:30:56.802Z,16.19
2022-08-17T01:32:59.532Z,15.76
2022-08-17T01:35:26.256Z,15.79
2022-08-17T01:37:53.080Z,15.87
2022-08-17T01:40:38.943Z,15.93
2022-08-17T01:43:15.009Z,15.99
2022-08-17T01:45:46.544Z,16.04
2022-08-17T01:48:13.923Z,16.07
2022-08-17T01:50:44.308Z,15.92
2022-08-17T01:53:15.679Z,16.00
2022-08-17T01:55:49.235Z,15.99
2022-08-17T01:58:16.063Z,15.96
2022-08-17T02:00:59.474Z,15.90
2022-08-17T02:03:28.324Z,15.86
2022-08-17T02:05:58.691Z,15.80
2022-08-17T02:08:39.130Z,15.78
2022-08-17T02:11:16.975Z,15.76
2022-08-17T02:13:45.813Z,15.73
2022-08-17T02:16:13.243Z,15.67
2022-08-17T02:18:40.053Z,15.52
2022-08-17T02:21:07.640Z,15.38
2022-08-17T02:23:37.901Z,15.38
2022-08-17T02:26:05.348Z,15.21
2022-08-17T02:28:31.966Z,15.22
2022-08-17T02:31:05.764Z,15.22
2022-08-17T02:33:43.012Z,15.25
2022-08-17T02:36:12.394Z,15.03
2022-08-17T02:38:39.877Z,15.05
2022-08-17T02:41:06.920Z,15.12
2022-08-17T02:43:33.662Z,15.20
2022-08-17T02:46:00.420Z,15.22
2022-08-17T02:48:30.472Z,15.22
2022-08-17T02:50:58.094Z,15.23
2022-08-17T02:53:25.702Z,15.23
2022-08-17T02:55:53.219Z,15.19
2022-08-17T02:58:34.278Z,15.22
2022-08-17T03:01:04.257Z,15.16
2022-08-17T03:03:30.878Z,15.10
2022-08-17T03:05:57.929Z,15.18
2022-08-17T03:08:25.522Z,15.15
2022-08-17T03:10:52.758Z,14.98
2022-08-17T03:13:20.146Z,14.92
2022-08-17T03:15:48.072Z,14.78
2022-08-17T03:18:24.874Z,14.83
2022-08-17T03:20:55.113Z,14.97
2022-08-17T03:23:24.044Z,15.02
2022-08-17T03:25:52.852Z,14.94
2022-08-17T03:28:20.401Z,14.89
2022-08-17T03:30:47.154Z,14.84
2022-08-17T03:33:14.221Z,14.80
2022-08-17T03:35:41.813Z,14.77
2022-08-17T03:38:11.546Z,14.71
2022-08-17T03:40:57.565Z,14.78
2022-08-17T03:43:25.612Z,14.68
2022-08-17T03:46:10.765Z,14.73
2022-08-17T03:49:09.692Z,14.63
2022-08-17T03:51:51.517Z,14.75
2022-08-17T03:54:33.546Z,14.86
2022-08-17T03:57:06.162Z,14.91
2022-08-17T03:59:33.869Z,14.89
2022-08-17T04:02:04.417Z,14.88
2022-08-17T04:04:31.143Z,14.69
2022-08-17T04:06:58.722Z,14.60
2022-08-17T04:09:25.392Z,14.56
2022-08-17T04:11:53.245Z,14.51
2022-08-17T04:14:20.401Z,14.54
2022-08-17T04:16:47.065Z,14.40
2022-08-17T04:19:13.745Z,14.35
2022-08-17T04:21:40.505Z,14.31
2022-08-17T04:24:07.764Z,14.27
2022-08-17T04:26:53.175Z,14.33
2022-08-17T04:29:21.411Z,14.40
2022-08-17T04:31:48.186Z,14.47
2022-08-17T04:34:14.805Z,14.52
2022-08-17T04:36:50.262Z,14.60
2022-08-17T04:39:17.253Z,14.65
2022-08-17T04:41:59.241Z,14.66
2022-08-17T04:44:27.243Z,14.54
2022-08-17T04:47:04.787Z,14.44
2022-08-17T04:49:32.612Z,14.42
2022-08-17T04:52:04.402Z,14.42
2022-08-17T04:54:31.471Z,14.36
2022-08-17T04:56:58.262Z,14.40
2022-08-17T04:59:24.924Z,14.50
2022-08-17T05:01:52.318Z,14.57
2022-08-17T05:04:35.141Z,14.61
2022-08-17T05:07:03.204Z,14.64
2022-08-17T05:09:29.870Z,14.67
2022-08-17T05:12:01.237Z,14.74
2022-08-17T05:14:32.913Z,14.81
2022-08-17T05:17:00.589Z,14.89
2022-08-17T05:19:27.894Z,14.96
2022-08-17T05:21:54.529Z,15.07
2022-08-17T05:24:40.722Z,15.18
2022-08-17T05:27:07.780Z,15.30
2022-08-17T05:29:35.391Z,15.40
2022-08-17T05:32:38.224Z,15.47
2022-08-17T05:35:00.009Z,15.63
2022-08-17T05:37:26.666Z,15.70
2022-08-17T05:39:54.500Z,15.75
2022-08-17T05:42:21.683Z,15.80
2022-08-17T05:44:48.547Z,15.88
2022-08-17T05:47:15.252Z,15.94
2022-08-17T05:49:41.956Z,16.05
2022-08-17T05:52:26.785Z,16.17
2022-08-17T05:55:09.616Z,16.38
2022-08-17T05:57:59.995Z,16.50
2022-08-17T06:00:36.308Z,16.68
2022-08-17T06:03:18.719Z,16.85
2022-08-17T06:06:09.602Z,16.95
2022-08-17T06:08:51.708Z,17.09
2022-08-17T06:11:20.049Z,17.14
2022-08-17T06:14:22.578Z,17.24
2022-08-17T06:16:56.028Z,17.31
2022-08-17T06:19:44.305Z,17.45
2022-08-17T06:22:16.551Z,17.67
2022-08-17T06:24:51.669Z,17.80
2022-08-17T06:27:38.704Z,17.92
2022-08-17T06:30:12.041Z,17.98
2022-08-17T06:32:42.472Z,18.11
2022-08-17T06:35:12.516Z,18.21
2022-08-17T06:38:01.429Z,18.21
2022-08-17T06:40:52.055Z,18.25
2022-08-17T06:43:34.075Z,18.31
2022-08-17T06:46:15.524Z,18.41
2022-08-17T06:49:07.899Z,18.48
2022-08-17T06:51:41.239Z,18.53
2022-08-17T06:54:11.188Z,18.62
2022-08-17T06:56:53.569Z,18.77
2022-08-17T06:59:54.151Z,18.84
2022-08-17T07:02:52.729Z,18.99
2022-08-17T07:05:24.706Z,19.12
2022-08-17T07:08:01.907Z,19.33
2022-08-17T07:10:36.070Z,19.52
2022-08-17T07:13:20.489Z,19.61
2022-08-17T07:15:51.811Z,19.68
2022-08-17T07:18:24.162Z,20.05
2022-08-17T07:20:59.920Z,20.15
2022-08-17T07:23:38.655Z,20.30
2022-08-17T07:26:07.936Z,20.40
2022-08-17T07:28:36.056Z,20.42
2022-08-17T07:31:04.847Z,20.67
2022-08-17T07:33:34.031Z,20.91
2022-08-17T07:36:01.622Z,21.01
2022-08-17T07:38:31.233Z,21.16
2022-08-17T07:40:58.102Z,21.27
2022-08-17T07:43:29.445Z,21.32
2022-08-17T07:46:17.708Z,21.33
2022-08-17T07:48:49.688Z,21.41
2022-08-17T07:51:26.313Z,21.59
2022-08-17T07:54:13.186Z,21.85
2022-08-17T07:56:42.966Z,22.06
2022-08-17T07:59:14.494Z,22.05
2022-08-17T08:01:45.524Z,22.10
2022-08-17T08:07:16.429Z,22.47
2022-08-17T08:09:46.570Z,22.59
2022-08-17T08:12:33.517Z,22.73
2022-08-17T08:15:07.738Z,22.82
2022-08-17T08:17:45.294Z,22.90
2022-08-17T08:20:51.185Z,23.13
2022-08-17T08:23:34.057Z,23.43
2022-08-17T08:26:01.662Z,23.36
2022-08-17T08:29:03.741Z,23.46
2022-08-17T08:32:05.534Z,23.72
2022-08-17T08:35:01.759Z,23.63
2022-08-17T08:37:55.734Z,23.77
2022-08-17T08:40:38.729Z,24.05
2022-08-17T08:43:40.553Z,24.39
2022-08-17T08:46:35.401Z,24.36
2022-08-17T08:50:02.070Z,24.64
2022-08-17T08:52:32.366Z,24.77
2022-08-17T08:55:12.398Z,24.92
2022-08-17T08:57:47.928Z,24.89
2022-08-17T09:00:25.281Z,25.06
2022-08-17T09:03:49.711Z,25.27
2022-08-17T09:06:39.017Z,25.36
2022-08-17T09:09:35.907Z,25.60
2022-08-17T09:12:25.430Z,25.84
2022-08-17T09:15:01.429Z,26.18
2022-08-17T09:17:42.140Z,26.28
2022-08-17T09:20:10.150Z,26.32
2022-08-17T09:22:48.823Z,26.36
2022-08-17T09:25:23.567Z,26.54
2022-08-17T09:27:57.358Z,26.61
2022-08-17T09:30:36.228Z,26.69
2022-08-17T09:33:08.715Z,26.84
2022-08-17T09:35:44.575Z,26.92
2022-08-17T09:38:33.247Z,26.81
2022-08-17T09:41:06.403Z,26.79
2022-08-17T09:43:54.178Z,26.74
2022-08-17T09:46:39.330Z,26.72
2022-08-17T09:49:24.648Z,26.89
2022-08-17T09:51:58.678Z,27.10
2022-08-17T09:54:39.102Z,27.35
2022-08-17T09:57:34.959Z,27.52
2022-08-17T10:00:13.332Z,27.50
2022-08-17T10:02:51.237Z,27.36
2022-08-17T10:05:43.239Z,27.24
2022-08-17T10:08:30.104Z,27.30
2022-08-17T10:11:08.095Z,27.30
2022-08-17T10:13:41.342Z,27.19
2022-08-17T10:16:23.187Z,27.62
2022-08-17T10:19:02.776Z,27.66
2022-08-17T10:21:48.606Z,27.55
2022-08-17T10:25:22.962Z,27.75
2022-08-17T10:27:41.206Z,27.99
2022-08-17T10:30:10.140Z,28.01
2022-08-17T10:32:59.897Z,28.25
2022-08-17T10:35:52.692Z,28.41
2022-08-17T10:38:47.912Z,28.47
2022-08-17T10:41:30.948Z,28.50
2022-08-17T10:44:39.682Z,28.48
2022-08-17T10:46:57.129Z,28.49
2022-08-17T10:49:29.537Z,28.59
2022-08-17T10:51:58.682Z,29.09
2022-08-17T10:54:25.268Z,29.29
2022-08-17T10:56:54.296Z,29.41
2022-08-17T10:59:36.289Z,29.21
2022-08-17T11:02:27.495Z,29.51
2022-08-17T11:05:06.352Z,29.60
2022-08-17T11:07:58.642Z,29.55
2022-08-17T11:10:42.272Z,29.37
2022-08-17T11:13:24.518Z,29.47
2022-08-17T11:16:26.402Z,29.50
2022-08-17T11:19:22.516Z,29.39
2022-08-17T11:22:21.930Z,29.96
2022-08-17T11:24:53.123Z,30.30
2022-08-17T11:27:31.683Z,30.15
2022-08-17T11:30:05.363Z,29.97
2022-08-17T11:32:34.069Z,29.85
2022-08-17T11:35:12.087Z,30.31
2022-08-17T11:37:45.660Z,30.43
2022-08-17T11:40:24.113Z,30.41
2022-08-17T11:42:59.200Z,30.17
2022-08-17T11:45:42.083Z,30.35
2022-08-17T11:48:47.189Z,30.49
2022-08-17T11:51:33.309Z,30.50
2022-08-17T11:57:00.098Z,30.34
2022-08-17T11:59:46.872Z,30.33
2022-08-17T12:02:35.345Z,30.25
2022-08-17T12:05:17.503Z,30.26
2022-08-17T12:07:51.917Z,30.21
2022-08-17T12:10:30.238Z,30.15
2022-08-17T12:12:57.645Z,30.16
2022-08-17T12:15:37.370Z,30.07
2022-08-17T12:18:04.416Z,30.09
2022-08-17T12:20:38.207Z,30.37
2022-08-17T12:23:17.664Z,30.85
2022-08-17T12:26:04.497Z,31.15
2022-08-17T12:28:35.346Z,31.20
2022-08-17T12:31:07.085Z,30.99
2022-08-17T12:33:37.124Z,31.28
2022-08-17T12:36:07.591Z,31.14
2022-08-17T12:38:37.300Z,30.97
2022-08-17T12:41:22.896Z,31.20
2022-08-17T12:44:02.286Z,31.60
2022-08-17T12:46:33.627Z,31.81
2022-08-17T12:49:19.752Z,31.72
2022-08-17T12:51:47.778Z,31.62
2022-08-17T12:54:26.510Z,31.43
2022-08-17T12:56:53.787Z,31.46
2022-08-17T12:59:29.622Z,31.23
2022-08-17T13:01:57.480Z,31.06
2022-08-17T13:04:24.522Z,31.23
2022-08-17T13:06:59.874Z,31.26
2022-08-17T13:09:36.082Z,31.39
2022-08-17T13:12:07.491Z,31.23
2022-08-17T13:14:35.170Z,31.42
2022-08-17T13:17:08.377Z,31.57
2022-08-17T13:19:49.271Z,31.57
2022-08-17T13:22:16.827Z,31.68
2022-08-17T13:24:55.135Z,31.78
2022-08-17T13:27:25.750Z,31.79
2022-08-17T13:29:57.551Z,31.62
2022-08-17T13:32:36.692Z,31.94
2022-08-17T13:35:39.929Z,32.13
2022-08-17T13:38:11.857Z,32.09
2022-08-17T13:40:38.533Z,32.02
2022-08-17T13:43:05.481Z,32.19
2022-08-17T13:45:41.316Z,32.38
2022-08-17T13:48:08.885Z,32.41
2022-08-17T13:50:42.862Z,32.46
2022-08-17T13:53:27.055Z,32.50
2022-08-17T13:55:58.159Z,32.59
2022-08-17T13:58:29.173Z,32.85
2022-08-17T14:00:56.361Z,32.62
2022-08-17T14:03:24.427Z,32.58
2022-08-17T14:05:52.779Z,32.33
2022-08-17T14:08:20.821Z,32.26
2022-08-17T14:11:01.954Z,32.28
2022-08-17T14:13:32.263Z,32.59
2022-08-17T14:15:58.850Z,32.89
2022-08-17T14:18:35.516Z,32.86
2022-08-17T14:21:12.487Z,32.67
2022-08-17T14:23:39.340Z,32.63
2022-08-17T14:26:06.091Z,32.66
2022-08-17T14:28:33.086Z,32.93
2022-08-17T14:31:03.096Z,33.01
2022-08-17T14:33:29.801Z,32.97
2022-08-17T14:35:57.608Z,32.88
2022-08-17T14:38:24.746Z,33.08
2022-08-17T14:40:51.995Z,32.91
2022-08-17T14:43:18.959Z,32.93
2022-08-17T14:45:45.616Z,32.88
2022-08-17T14:48:12.372Z,33.02
2022-08-17T14:50:41.804Z,32.75
2022-08-17T14:53:11.264Z,32.60
2022-08-17T14:55:40.010Z,32.83
2022-08-17T14:58:09.780Z,32.85
2022-08-17T15:00:37.380Z,32.72
2022-08-17T15:03:07.618Z,32.47
2022-08-17T15:05:37.803Z,32.32
2022-08-17T15:08:05.862Z,32.23
2022-08-17T15:10:32.698Z,32.18
2022-08-17T15:13:00.490Z,32.03
2022-08-17T15:15:28.638Z,32.01
2022-08-17T15:17:55.438Z,32.19
2022-08-17T15:20:27.970Z,32.16
2022-08-17T15:22:57.135Z,32.26
2022-08-17T15:25:25.504Z,32.45
2022-08-17T15:27:52.697Z,32.38
2022-08-17T15:30:19.866Z,32.26
2022-08-17T15:32:54.348Z,32.18
2022-08-17T15:35:27.548Z,32.42
2022-08-17T15:38:09.784Z,32.39
2022-08-17T15:40:42.227Z,32.37
2022-08-17T15:43:15.158Z,32.45
2022-08-17T15:45:42.086Z,32.64
2022-08-17T15:48:09.211Z,32.67
2022-08-17T15:50:36.261Z,32.64
2022-08-17T15:53:04.920Z,32.50
2022-08-17T15:55:32.698Z,32.50
2022-08-17T15:58:00.283Z,32.44
2022-08-17T16:00:28.621Z,32.54
2022-08-17T16:03:46.438Z,32.36
2022-08-17T16:05:44.568Z,32.14
2022-08-17T16:08:17.115Z,31.95
2022-08-17T16:10:46.888Z,31.81
2022-08-17T16:13:17.706Z,31.68
2022-08-17T16:15:57.055Z,31.52
2022-08-17T16:18:37.011Z,31.45
2022-08-17T16:21:42.480Z,31.36
2022-08-17T16:24:13.423Z,31.28
2022-08-17T16:26:43.689Z,31.42
2022-08-17T16:29:10.617Z,31.71
2022-08-17T16:31:37.904Z,31.55
2022-08-17T16:34:58.463Z,31.54
2022-08-17T16:37:25.135Z,31.51
2022-08-17T16:39:55.196Z,31.43
2022-08-17T16:42:25.014Z,31.27
2022-08-17T16:47:42.863Z,30.93
2022-08-17T16:50:34.826Z,30.79
2022-08-17T16:53:14.935Z,30.67
2022-08-17T16:55:44.345Z,30.59
2022-08-17T16:58:19.263Z,30.59
2022-08-17T17:00:51.869Z,30.43
2022-08-17T17:03:22.138Z,30.32
2022-08-17T17:06:01.469Z,30.22
2022-08-17T17:08:40.694Z,30.15
2022-08-17T17:11:18.040Z,30.04
2022-08-17T17:13:50.968Z,29.94
2022-08-17T17:16:23.964Z,29.80
2022-08-17T17:19:13.401Z,29.67
2022-08-17T17:21:58.712Z,29.59
2022-08-17T17:24:57.028Z,29.49
2022-08-17T17:27:30.305Z,29.51
2022-08-17T17:29:56.966Z,29.30
2022-08-17T17:32:51.022Z,29.23
2022-08-17T17:35:31.874Z,29.11
2022-08-17T17:38:03.350Z,28.82
2022-08-17T17:40:40.417Z,28.67
2022-08-17T17:43:37.029Z,28.47
2022-08-17T17:46:26.573Z,28.30
2022-08-17T17:48:50.834Z,28.25
2022-08-17T17:52:08.500Z,28.19
2022-08-17T17:54:48.263Z,28.13
2022-08-17T17:57:45.566Z,27.78
2022-08-17T18:00:18.712Z,27.60
2022-08-17T18:02:47.423Z,27.43
2022-08-17T18:05:34.371Z,27.30
2022-08-17T18:08:40.943Z,27.23
2022-08-17T18:11:24.044Z,27.04
2022-08-17T18:14:04.487Z,26.75
2022-08-17T18:16:32.955Z,26.60
2022-08-17T18:19:01.366Z,26.58
2022-08-17T18:21:38.247Z,26.44
2022-08-17T18:24:10.567Z,26.25
2022-08-17T18:26:49.537Z,26.15
2022-08-17T18:29:31.915Z,26.04
2022-08-17T18:32:29.076Z,25.87
2022-08-17T18:35:01.813Z,25.80
2022-08-17T18:37:31.025Z,25.76
2022-08-17T18:39:57.765Z,25.64
2022-08-17T18:42:27.136Z,25.60
2022-08-17T18:44:55.655Z,25.55
2022-08-17T18:47:28.022Z,25.55
2022-08-17T18:49:58.440Z,25.48
2022-08-17T18:52:28.085Z,25.37
2022-08-17T18:55:15.347Z,25.30
2022-08-17T18:57:45.660Z,25.33
2022-08-17T19:00:13.290Z,25.23
2022-08-17T19:02:57.177Z,25.09
2022-08-17T19:05:36.673Z,24.98
2022-08-17T19:08:24.746Z,24.84
2022-08-17T19:10:59.389Z,24.77
2022-08-17T19:13:31.146Z,24.74
2022-08-17T19:16:15.137Z,24.74
2022-08-17T19:19:01.981Z,24.73
2022-08-17T19:21:48.208Z,24.65
2022-08-17T19:24:25.098Z,24.59
2022-08-17T19:26:58.788Z,24.47
2022-08-17T19:29:36.427Z,24.39
2022-08-17T19:32:04.295Z,24.39
2022-08-17T19:34:34.763Z,24.36
2022-08-17T19:37:16.784Z,24.28
2022-08-17T19:39:53.342Z,24.15
2022-08-17T19:42:37.200Z,23.92
2022-08-17T19:45:28.590Z,23.94
2022-08-17T19:48:12.887Z,23.92
2022-08-17T19:50:55.422Z,23.87
2022-08-17T19:53:23.439Z,23.85
2022-08-17T19:55:51.455Z,23.85
2022-08-17T19:58:52.588Z,23.72
2022-08-17T20:01:34.814Z,23.60
2022-08-17T20:04:21.109Z,23.64
2022-08-17T20:06:50.205Z,23.53
2022-08-17T20:09:39.224Z,23.43
2022-08-17T20:12:11.222Z,23.33
2022-08-17T20:14:53.629Z,23.31
2022-08-17T20:17:28.305Z,23.37
2022-08-17T20:20:06.497Z,23.29
2022-08-17T20:22:52.514Z,23.20
2022-08-17T20:25:40.788Z,23.18
2022-08-17T20:28:28.837Z,23.21
2022-08-17T20:30:59.603Z,23.15
2022-08-17T20:33:31.606Z,23.03
2022-08-17T20:36:04.959Z,22.88
2022-08-17T20:38:48.940Z,22.89
2022-08-17T20:41:22.484Z,22.79
2022-08-17T20:44:03.065Z,22.81
2022-08-17T20:46:46.026Z,22.72
2022-08-17T20:49:19.962Z,22.46
2022-08-17T20:52:08.981Z,22.11
2022-08-17T20:54:53.179Z,22.20
2022-08-17T20:57:35.256Z,22.26
2022-08-17T21:00:15.612Z,22.18
2022-08-17T21:02:45.931Z,22.15
2022-08-17T21:05:42.971Z,22.25
2022-08-17T21:08:19.564Z,22.24
2022-08-17T21:10:47.169Z,22.26
2022-08-17T21:13:15.498Z,22.13
2022-08-17T21:15:42.362Z,22.12
2022-08-17T21:18:25.186Z,22.15
2022-08-17T21:21:18.989Z,22.16
2022-08-17T21:24:00.992Z,22.16
2022-08-17T21:26:59.841Z,22.09
2022-08-17T21:30:01.258Z,22.10
2022-08-17T21:32:37.832Z,22.03
2022-08-17T21:35:16.636Z,21.95
2022-08-17T21:37:46.541Z,21.94
2022-08-17T21:40:21.569Z,21.81
2022-08-17T21:42:55.527Z,21.65
2022-08-17T21:45:49.224Z,21.60
2022-08-17T21:48:26.676Z,21.60
2022-08-17T21:51:13.493Z,21.63
2022-08-17T21:54:01.444Z,21.59
2022-08-17T21:56:34.409Z,21.55
2022-08-17T21:59:07.644Z,21.36
2022-08-17T22:01:40.383Z,21.37
2022-08-17T22:04:20.186Z,21.32
2022-08-17T22:06:56.783Z,21.18
2022-08-17T22:09:31.649Z,21.24
2022-08-17T22:12:10.201Z,21.19
2022-08-17T22:14:53.424Z,21.16
2022-08-17T22:17:24.600Z,21.17
2022-08-17T22:20:01.415Z,21.01
2022-08-17T22:22:32.295Z,21.02
2022-08-17T22:25:04.523Z,20.92
2022-08-17T22:27:56.640Z,21.02
2022-08-17T22:30:40.033Z,20.98
2022-08-17T22:33:29.001Z,20.86
2022-08-17T22:36:11.808Z,20.86
2022-08-17T22:38:40.537Z,20.90
2022-08-17T22:41:23.584Z,20.89
2022-08-17T22:43:50.760Z,20.87
2022-08-17T22:46:23.875Z,20.84
2022-08-17T22:48:56.791Z,20.91
2022-08-17T22:51:28.347Z,20.97
2022-08-17T22:54:16.544Z,20.90
2022-08-17T22:57:18.940Z,20.93
2022-08-17T22:59:50.549Z,20.93
2022-08-17T23:02:28.014Z,20.97
2022-08-17T23:05:15.857Z,21.00
2022-08-17T23:07:45.476Z,21.05
2022-08-17T23:10:13.511Z,20.96
2022-08-17T23:12:41.325Z,20.99
2022-08-17T23:15:14.337Z,21.02
2022-08-17T23:17:42.068Z,21.03
2022-08-17T23:20:13.084Z,21.06
2022-08-17T23:22:52.039Z,21.08
2022-08-17T23:25:26.403Z,21.06
2022-08-17T23:27:53.355Z,21.09
2022-08-17T23:30:20.422Z,21.04
2022-08-17T23:32:53.761Z,21.04
2022-08-17T23:35:40.114Z,21.06
2022-08-17T23:38:10.090Z,21.04
2022-08-17T23:40:37.864Z,21.00
2022-08-17T23:43:24.106Z,20.88
2022-08-17T23:45:54.061Z,20.88
2022-08-17T23:48:32.681Z,20.91
2022-08-17T23:51:05.967Z,20.88
2022-08-17T23:53:36.717Z,20.86
2022-08-17T23:56:09.723Z,20.83
2022-08-17T23:58:38.576Z,20.77
